Overview Statistics Trail Chart Weather Telemetry Raw packets
 

This is the latest recevied weather packets stored in our database for station/object Ostrach. If no packets are shown the sender has not sent any weather packets the latest 10 day(s).

<< 1 2 3 4 5 6 >>
Time Temp. Humidity Pressure Rain* Wind** Luminosity Snow
1788622331 21.67° C 63% 1019.4 hPa 1.52 mm - - -
1788620530 22.78° C 59% 1019.5 hPa 1.52 mm - - -
1788618730 23.89° C 63% 1019.4 hPa 1.52 mm - - -
1788616930 23.33° C 65% 1019.3 hPa 1.52 mm - - -
1788615130 25° C 61% 1019.2 hPa 1.52 mm - - -
1788613330 25.56° C 58% 1019 hPa 1.52 mm - - -
1788611530 25° C 63% 1019.1 hPa 1.52 mm - - -
1788609730 24.44° C 62% 1019.1 hPa 1.52 mm - - -
1788607930 23.33° C 67% 1019.3 hPa 1.52 mm - - -
1788606130 21.67° C 73% 1019.3 hPa 1.52 mm - - -
1788604330 18.89° C 82% 1019.2 hPa 1.52 mm - - -
1788602530 16.67° C 87% 1019.1 hPa 1.52 mm - - -
1788600731 16.11° C 83% 1019.4 hPa 0.76 mm - - -
1788598930 17.78° C 79% 1019.4 hPa 0.25 mm - - -
1788597131 17.78° C 80% 1018.7 hPa 0 mm - - -
1788595330 18.33° C 83% 1018.3 hPa 0 mm - - -
1788593530 18.33° C 84% 1018 hPa 0 mm - - -
1788591730 17.78° C 85% 1017.7 hPa 0 mm - - -
1788589930 17.78° C 84% 1017.6 hPa 0 mm - - -
1788588130 17.78° C 85% 1017.1 hPa 0 mm - - -
1788586329 18.33° C 82% 1016.8 hPa 0 mm - - -
1788584532 18.33° C 79% 1016.5 hPa 0 mm - - -
1788582730 18.33° C 78% 1016.3 hPa 0 mm - - -
1788580929 18.33° C 77% 1016.1 hPa 0 mm - - -
1788579130 18.89° C 75% 1015.5 hPa 0 mm - - -

* Rain since midnight (hover to see other rain measurements)
** Current wind speed in m/s (hover to see current wind gust speed)